createdAt,value
2022-07-29T00:00:10.538Z,3.95
2022-07-29T00:02:37.937Z,4.80
2022-07-29T00:05:06.062Z,5.55
2022-07-29T00:07:34.744Z,4.05
2022-07-29T00:10:02.281Z,4.95
2022-07-29T00:12:30.634Z,4.47
2022-07-29T00:14:59.501Z,3.67
2022-07-29T00:17:26.934Z,5.65
2022-07-29T00:19:54.203Z,4.25
2022-07-29T00:22:21.897Z,5.70
2022-07-29T00:24:50.793Z,4.70
2022-07-29T00:27:20.125Z,3.92
2022-07-29T00:29:47.456Z,5.50
2022-07-29T00:32:15.038Z,7.57
2022-07-29T00:35:00.954Z,9.73
2022-07-29T00:37:28.199Z,14.32
2022-07-29T00:39:56.966Z,15.45
2022-07-29T00:42:24.279Z,14.47
2022-07-29T00:44:51.511Z,18.33
2022-07-29T00:47:18.760Z,9.57
2022-07-29T00:49:46.205Z,14.98
2022-07-29T00:52:17.182Z,11.73
2022-07-29T00:54:45.143Z,12.40
2022-07-29T00:57:14.334Z,17.05
2022-07-29T00:59:41.733Z,10.75
2022-07-29T01:02:09.113Z,12.93
2022-07-29T01:04:36.564Z,19.33
2022-07-29T01:07:05.178Z,16.80
2022-07-29T01:09:46.416Z,13.10
2022-07-29T01:12:19.517Z,13.30
2022-07-29T01:14:48.850Z,11.75
2022-07-29T01:17:22.058Z,10.82
2022-07-29T01:19:57.711Z,18.50
2022-07-29T01:22:38.167Z,19.65
2022-07-29T01:25:25.958Z,13.90
2022-07-29T01:28:21.784Z,13.77
2022-07-29T01:30:55.087Z,8.82
2022-07-29T01:33:45.515Z,7.07
2022-07-29T01:36:17.679Z,7.75
2022-07-29T01:38:49.558Z,12.23
2022-07-29T01:41:18.517Z,5.57
2022-07-29T01:43:51.196Z,8.68
2022-07-29T01:46:26.500Z,7.80
2022-07-29T01:48:58.837Z,4.80
2022-07-29T01:51:32.713Z,8.00
2022-07-29T01:54:05.397Z,4.35
2022-07-29T01:56:36.270Z,4.55
2022-07-29T01:59:06.320Z,3.88
2022-07-29T02:01:37.532Z,5.10
2022-07-29T02:04:07.746Z,6.38
2022-07-29T02:06:38.436Z,6.57
2022-07-29T02:09:08.429Z,5.68
2022-07-29T02:11:38.787Z,5.95
2022-07-29T02:14:08.489Z,3.90
2022-07-29T02:16:39.809Z,5.85
2022-07-29T02:19:09.818Z,4.18
2022-07-29T02:21:37.577Z,5.38
2022-07-29T02:24:06.301Z,6.93
2022-07-29T02:26:34.884Z,6.43
2022-07-29T02:29:03.296Z,4.40
2022-07-29T02:31:34.557Z,7.75
2022-07-29T02:34:06.931Z,3.63
2022-07-29T02:36:35.217Z,5.78
2022-07-29T02:39:03.832Z,4.68
2022-07-29T02:41:34.553Z,7.80
2022-07-29T02:44:07.419Z,5.82
2022-07-29T02:46:37.992Z,4.20
2022-07-29T02:49:14.758Z,6.18
2022-07-29T02:51:45.371Z,3.97
2022-07-29T02:54:23.190Z,7.93
2022-07-29T02:56:54.804Z,4.05
2022-07-29T02:59:26.283Z,3.30
2022-07-29T03:01:55.434Z,4.18
2022-07-29T03:04:27.139Z,6.53
2022-07-29T03:06:55.058Z,4.15
2022-07-29T03:09:24.243Z,6.25
2022-07-29T03:11:51.846Z,4.18
2022-07-29T03:14:20.985Z,4.43
2022-07-29T03:19:17.357Z,5.15
2022-07-29T03:21:46.051Z,3.95
2022-07-29T03:24:26.172Z,5.03
2022-07-29T03:26:53.558Z,3.42
2022-07-29T03:29:20.911Z,4.20
2022-07-29T03:31:48.068Z,3.67
2022-07-29T03:34:16.054Z,3.97
2022-07-29T03:36:45.186Z,5.60
2022-07-29T03:39:17.378Z,5.05
2022-07-29T03:41:47.474Z,3.33
2022-07-29T03:44:16.942Z,3.75
2022-07-29T03:46:45.783Z,4.22
2022-07-29T03:49:16.011Z,3.25
2022-07-29T03:51:45.828Z,2.97
2022-07-29T03:54:14.369Z,6.28
2022-07-29T03:56:47.351Z,2.90
2022-07-29T03:59:16.267Z,5.55
2022-07-29T04:01:44.342Z,6.57
2022-07-29T04:04:12.257Z,7.97
2022-07-29T04:06:40.818Z,6.72
2022-07-29T04:09:09.844Z,7.00
2022-07-29T04:12:01.577Z,11.73
2022-07-29T04:14:26.740Z,8.52
2022-07-29T04:16:54.202Z,5.43
2022-07-29T04:19:21.469Z,4.85
2022-07-29T04:21:48.644Z,7.28
2022-07-29T04:24:17.861Z,8.15
2022-07-29T04:29:15.223Z,5.90
2022-07-29T04:31:43.317Z,6.10
2022-07-29T04:34:11.236Z,12.40
2022-07-29T04:36:38.559Z,7.80
2022-07-29T04:39:05.915Z,7.28
2022-07-29T04:41:34.692Z,7.28
2022-07-29T04:44:07.143Z,9.63
2022-07-29T04:46:35.048Z,5.25
2022-07-29T04:49:02.489Z,6.40
2022-07-29T04:51:29.740Z,10.93
2022-07-29T04:53:56.939Z,9.48
2022-07-29T04:56:24.546Z,7.07
2022-07-29T04:58:53.477Z,8.88
2022-07-29T05:01:20.970Z,7.32
2022-07-29T05:03:48.255Z,7.90
2022-07-29T05:06:15.555Z,7.28
2022-07-29T05:08:43.114Z,7.30
2022-07-29T05:11:12.174Z,7.90
2022-07-29T05:13:45.433Z,7.57
2022-07-29T05:16:16.759Z,6.18
2022-07-29T05:18:46.739Z,7.82
2022-07-29T05:21:15.331Z,4.85
2022-07-29T05:23:44.373Z,11.15
2022-07-29T05:26:11.646Z,4.63
2022-07-29T05:28:39.135Z,4.97
2022-07-29T05:31:06.393Z,5.78
2022-07-29T05:33:37.058Z,6.88
2022-07-29T05:36:07.887Z,5.03
2022-07-29T05:38:35.827Z,5.05
2022-07-29T05:41:03.536Z,2.53
2022-07-29T05:43:31.136Z,3.97
2022-07-29T05:45:58.703Z,3.92
2022-07-29T05:48:26.470Z,3.13
2022-07-29T05:50:55.885Z,4.18
2022-07-29T05:53:23.768Z,4.75
2022-07-29T05:55:51.579Z,3.55
2022-07-29T05:58:18.983Z,1.63
2022-07-29T06:00:47.116Z,2.50
2022-07-29T06:03:14.384Z,2.25
2022-07-29T06:05:41.935Z,2.65
2022-07-29T06:08:10.543Z,4.03
2022-07-29T06:10:37.810Z,4.83
2022-07-29T06:13:04.995Z,3.85
2022-07-29T06:15:32.237Z,2.13
2022-07-29T06:18:01.304Z,2.40
2022-07-29T06:20:30.839Z,1.50
2022-07-29T06:25:27.194Z,4.95
2022-07-29T06:27:54.443Z,1.48
2022-07-29T06:30:21.766Z,1.40
2022-07-29T06:32:49.253Z,1.98
2022-07-29T06:35:39.066Z,2.75
2022-07-29T06:38:12.039Z,2.67
2022-07-29T06:41:04.148Z,3.28
2022-07-29T06:43:35.196Z,3.60
2022-07-29T06:46:03.926Z,2.20
2022-07-29T06:48:31.510Z,1.23
2022-07-29T06:50:59.075Z,1.05
2022-07-29T06:53:26.943Z,1.20
2022-07-29T06:55:55.850Z,2.13
2022-07-29T06:58:23.615Z,1.90
2022-07-29T07:00:57.011Z,1.08
2022-07-29T07:03:24.484Z,1.63
2022-07-29T07:05:53.378Z,3.50
2022-07-29T07:08:20.885Z,2.25
2022-07-29T07:10:48.056Z,1.92
2022-07-29T07:13:19.360Z,2.83
2022-07-29T07:15:49.406Z,2.35
2022-07-29T07:18:16.817Z,1.40
2022-07-29T07:20:44.602Z,2.97
2022-07-29T07:23:11.845Z,2.22
2022-07-29T07:25:39.305Z,1.60
2022-07-29T07:28:06.564Z,1.00
2022-07-29T07:30:35.257Z,3.75
2022-07-29T07:33:02.473Z,3.08
2022-07-29T07:35:29.991Z,3.38
2022-07-29T07:37:57.980Z,1.40
2022-07-29T07:40:26.044Z,4.20
2022-07-29T07:42:53.362Z,1.10
2022-07-29T07:45:20.749Z,2.03
2022-07-29T07:47:49.470Z,2.03
2022-07-29T07:50:19.319Z,0.75
2022-07-29T07:52:51.337Z,1.77
2022-07-29T07:55:19.613Z,2.22
2022-07-29T07:57:46.977Z,1.65
2022-07-29T08:00:15.586Z,1.08
2022-07-29T08:02:46.127Z,1.85
2022-07-29T08:05:18.066Z,3.10
2022-07-29T08:07:47.067Z,3.20
2022-07-29T08:10:15.187Z,3.00
2022-07-29T08:12:43.188Z,3.38
2022-07-29T08:15:10.585Z,1.73
2022-07-29T08:17:37.790Z,2.13
2022-07-29T08:20:06.058Z,2.22
2022-07-29T08:22:35.028Z,1.58
2022-07-29T08:25:02.353Z,1.63
2022-07-29T08:27:47.292Z,1.40
2022-07-29T08:30:14.759Z,5.60
2022-07-29T08:32:53.869Z,2.05
2022-07-29T08:35:21.937Z,1.88
2022-07-29T08:37:50.638Z,1.60
2022-07-29T08:40:18.032Z,4.40
2022-07-29T08:42:46.054Z,2.08
2022-07-29T08:45:13.544Z,1.30
2022-07-29T08:47:41.027Z,3.03
2022-07-29T08:50:09.658Z,2.38
2022-07-29T08:52:38.874Z,2.28
2022-07-29T08:55:09.481Z,3.15
2022-07-29T08:57:43.447Z,4.82
2022-07-29T09:00:19.581Z,2.72
2022-07-29T09:02:52.757Z,2.45
2022-07-29T09:05:20.695Z,5.03
2022-07-29T09:07:49.100Z,4.75
2022-07-29T09:10:17.819Z,4.32
2022-07-29T09:12:45.460Z,2.05
2022-07-29T09:15:12.673Z,1.70
2022-07-29T09:17:44.276Z,2.22
2022-07-29T09:20:13.785Z,3.20
2022-07-29T09:25:10.173Z,3.70
2022-07-29T09:27:39.329Z,1.30
2022-07-29T09:30:08.316Z,2.33
2022-07-29T09:32:55.512Z,2.72
2022-07-29T09:35:24.337Z,2.25
2022-07-29T09:37:51.659Z,0.80
2022-07-29T09:40:21.504Z,1.40
2022-07-29T09:42:50.940Z,2.25
2022-07-29T09:45:29.208Z,1.00
2022-07-29T09:47:58.518Z,1.10
2022-07-29T09:50:36.903Z,0.88
2022-07-29T09:53:04.402Z,1.73
2022-07-29T09:55:31.698Z,1.90
2022-07-29T09:58:18.538Z,1.52
2022-07-29T10:00:47.274Z,3.08
2022-07-29T10:03:15.153Z,1.73
2022-07-29T10:05:43.250Z,1.08
2022-07-29T10:08:11.577Z,2.05
2022-07-29T10:10:42.599Z,1.23
2022-07-29T10:13:15.366Z,3.78
2022-07-29T10:15:46.926Z,2.55
2022-07-29T10:18:18.480Z,1.95
2022-07-29T10:20:46.369Z,2.20
2022-07-29T10:23:13.754Z,0.85
2022-07-29T10:25:45.893Z,3.25
2022-07-29T10:28:16.560Z,2.20
2022-07-29T10:30:46.759Z,3.25
2022-07-29T10:33:19.277Z,2.47
2022-07-29T10:36:03.221Z,0.93
2022-07-29T10:39:05.483Z,0.73
2022-07-29T10:42:03.595Z,1.77
2022-07-29T10:44:31.566Z,4.07
2022-07-29T10:47:00.696Z,2.58
2022-07-29T10:49:31.131Z,2.17
2022-07-29T10:54:52.506Z,2.05
2022-07-29T10:57:25.964Z,1.60
2022-07-29T11:00:31.572Z,2.58
2022-07-29T11:03:01.257Z,1.90
2022-07-29T11:05:55.896Z,4.97
2022-07-29T11:08:28.025Z,5.40
2022-07-29T11:11:38.034Z,4.45
2022-07-29T11:14:05.490Z,1.05
2022-07-29T11:17:00.728Z,3.75
2022-07-29T11:19:30.719Z,1.98
2022-07-29T11:21:58.819Z,0.77
2022-07-29T11:24:33.172Z,1.48
2022-07-29T11:27:23.806Z,1.83
2022-07-29T11:29:58.512Z,3.47
2022-07-29T11:35:36.766Z,0.47
2022-07-29T11:38:27.707Z,2.05
2022-07-29T11:41:23.687Z,3.33
2022-07-29T11:43:52.667Z,1.52
2022-07-29T11:46:49.987Z,1.75
2022-07-29T11:49:20.564Z,1.20
2022-07-29T11:51:54.052Z,1.63
2022-07-29T11:54:27.219Z,0.80
2022-07-29T11:56:56.043Z,1.40
2022-07-29T11:59:23.658Z,0.73
2022-07-29T12:02:36.340Z,1.38
2022-07-29T12:04:52.205Z,1.52
2022-07-29T12:07:33.857Z,3.13
2022-07-29T12:10:03.825Z,2.00
2022-07-29T12:12:31.199Z,2.70
2022-07-29T12:14:58.506Z,2.65
2022-07-29T12:17:30.930Z,4.68
2022-07-29T12:20:02.535Z,12.20
2022-07-29T12:22:33.758Z,1.35
2022-07-29T12:25:30.404Z,1.77
2022-07-29T12:28:00.267Z,1.55
2022-07-29T12:30:41.619Z,1.15
2022-07-29T12:33:18.050Z,1.42
2022-07-29T12:35:58.117Z,2.13
2022-07-29T12:38:32.554Z,4.00
2022-07-29T12:41:00.079Z,3.75
2022-07-29T12:43:28.161Z,2.92
2022-07-29T12:45:56.840Z,1.63
2022-07-29T12:48:34.984Z,2.88
2022-07-29T12:51:03.976Z,2.15
2022-07-29T12:53:33.392Z,11.50
2022-07-29T12:56:15.596Z,2.55
2022-07-29T12:58:52.819Z,2.58
2022-07-29T13:01:21.143Z,2.22
2022-07-29T13:03:57.178Z,2.70
2022-07-29T13:06:36.765Z,3.80
2022-07-29T13:09:08.573Z,4.47
2022-07-29T13:11:37.802Z,5.45
2022-07-29T13:14:07.111Z,2.85
2022-07-29T13:19:06.733Z,3.38
2022-07-29T13:21:34.466Z,5.30
2022-07-29T13:24:01.742Z,3.75
2022-07-29T13:26:30.532Z,0.60
2022-07-29T13:28:57.926Z,1.98
2022-07-29T13:31:25.365Z,3.08
2022-07-29T13:33:52.732Z,1.35
2022-07-29T13:36:20.405Z,3.20
2022-07-29T13:38:47.587Z,1.35
2022-07-29T13:41:15.047Z,3.13
2022-07-29T13:43:43.673Z,1.70
2022-07-29T13:46:11.003Z,0.77
2022-07-29T13:48:38.390Z,0.80
2022-07-29T13:51:05.725Z,2.13
2022-07-29T13:53:33.835Z,1.42
2022-07-29T13:56:01.664Z,1.80
2022-07-29T13:58:28.999Z,2.40
2022-07-29T14:00:58.354Z,1.60
2022-07-29T14:03:25.960Z,1.00
2022-07-29T14:05:53.281Z,2.65
2022-07-29T14:08:20.878Z,1.02
2022-07-29T14:10:48.324Z,4.30
2022-07-29T14:13:25.235Z,1.25
2022-07-29T14:15:53.899Z,0.75
2022-07-29T14:18:22.566Z,1.00
2022-07-29T14:20:49.927Z,9.07
2022-07-29T14:23:17.127Z,2.90
2022-07-29T14:25:47.509Z,3.95
2022-07-29T14:30:44.243Z,3.60
2022-07-29T14:33:11.721Z,1.08
2022-07-29T14:35:40.323Z,2.08
2022-07-29T14:38:07.567Z,2.88
2022-07-29T14:40:34.967Z,5.60
2022-07-29T14:43:02.648Z,2.53
2022-07-29T14:45:30.418Z,3.08
2022-07-29T14:47:58.354Z,3.97
2022-07-29T14:50:31.201Z,0.98
2022-07-29T14:53:01.174Z,3.65
2022-07-29T14:58:05.802Z,1.15
2022-07-29T15:00:37.900Z,1.40
2022-07-29T15:03:05.874Z,2.83
2022-07-29T15:05:33.454Z,2.17
2022-07-29T15:08:02.395Z,7.28
2022-07-29T15:10:30.364Z,3.30
2022-07-29T15:12:58.465Z,2.35
2022-07-29T15:15:26.401Z,1.67
2022-07-29T15:17:53.677Z,0.98
2022-07-29T15:20:20.996Z,1.83
2022-07-29T15:22:48.198Z,0.65
2022-07-29T15:25:16.786Z,1.10
2022-07-29T15:27:48.963Z,1.23
2022-07-29T15:30:27.878Z,1.33
2022-07-29T15:33:01.223Z,2.80
2022-07-29T15:35:28.626Z,1.95
2022-07-29T15:37:55.896Z,4.72
2022-07-29T15:40:24.585Z,1.63
2022-07-29T15:42:51.906Z,1.10
2022-07-29T15:45:19.320Z,2.10
2022-07-29T15:47:46.532Z,0.85
2022-07-29T15:50:16.813Z,0.60
2022-07-29T15:52:44.168Z,1.67
2022-07-29T15:55:11.431Z,1.73
2022-07-29T15:57:40.979Z,1.35
2022-07-29T16:02:36.102Z,2.78
2022-07-29T16:05:04.423Z,2.25
2022-07-29T16:07:36.716Z,4.57
2022-07-29T16:10:04.785Z,6.65
2022-07-29T16:12:32.152Z,3.22
2022-07-29T16:15:00.861Z,3.58
2022-07-29T16:17:31.379Z,2.58
2022-07-29T16:19:58.966Z,2.00
2022-07-29T16:22:26.290Z,1.25
2022-07-29T16:24:53.521Z,2.35
2022-07-29T16:27:24.870Z,2.58
2022-07-29T16:29:52.719Z,1.73
2022-07-29T16:32:22.372Z,7.28
2022-07-29T16:34:50.026Z,3.08
2022-07-29T16:37:17.301Z,5.70
2022-07-29T16:39:44.512Z,4.53
2022-07-29T16:42:25.794Z,7.32
2022-07-29T16:44:58.921Z,4.05
2022-07-29T16:47:27.727Z,2.22
2022-07-29T16:49:55.120Z,4.07
2022-07-29T16:52:22.564Z,3.90
2022-07-29T16:54:50.073Z,4.57
2022-07-29T16:57:17.505Z,4.55
2022-07-29T16:59:45.241Z,3.38
2022-07-29T17:02:12.876Z,3.08
2022-07-29T17:04:41.658Z,2.70
2022-07-29T17:07:08.958Z,1.80
2022-07-29T17:09:36.312Z,6.35
2022-07-29T17:12:03.981Z,3.50
2022-07-29T17:14:32.207Z,3.17
2022-07-29T17:17:02.168Z,2.28
2022-07-29T17:19:35.748Z,5.43
2022-07-29T17:22:12.993Z,3.95
2022-07-29T17:24:45.901Z,3.80
2022-07-29T17:27:13.163Z,3.42
2022-07-29T17:29:41.707Z,4.35
2022-07-29T17:32:10.778Z,2.00
2022-07-29T17:34:39.017Z,14.63
2022-07-29T17:37:12.384Z,1.55
2022-07-29T17:39:42.556Z,5.55
2022-07-29T17:42:10.996Z,4.95
2022-07-29T17:44:39.180Z,4.20
2022-07-29T17:47:07.959Z,2.80
2022-07-29T17:49:45.305Z,3.15
2022-07-29T17:52:14.036Z,1.90
2022-07-29T17:54:41.455Z,7.07
2022-07-29T17:57:08.944Z,3.78
2022-07-29T17:59:36.412Z,3.08
2022-07-29T18:02:03.920Z,6.80
2022-07-29T18:05:06.111Z,3.55
2022-07-29T18:07:38.978Z,4.63
2022-07-29T18:10:06.837Z,3.73
2022-07-29T18:12:34.133Z,5.38
2022-07-29T18:15:01.387Z,2.75
2022-07-29T18:20:17.610Z,4.05
2022-07-29T18:22:46.643Z,4.65
2022-07-29T18:25:14.113Z,2.85
2022-07-29T18:27:42.196Z,4.00
2022-07-29T18:30:12.612Z,6.25
2022-07-29T18:32:40.284Z,4.03
2022-07-29T18:35:09.205Z,4.45
2022-07-29T18:38:02.259Z,2.55
2022-07-29T18:40:26.628Z,3.15
2022-07-29T18:42:57.333Z,3.10
2022-07-29T18:45:28.654Z,5.18
2022-07-29T18:47:56.567Z,3.58
2022-07-29T18:50:29.619Z,5.05
2022-07-29T18:52:58.944Z,3.92
2022-07-29T18:55:27.723Z,4.57
2022-07-29T18:57:57.130Z,3.47
2022-07-29T19:00:25.794Z,4.13
2022-07-29T19:02:53.688Z,5.88
2022-07-29T19:05:21.887Z,9.30
2022-07-29T19:07:49.263Z,5.75
2022-07-29T19:10:16.596Z,5.53
2022-07-29T19:12:45.267Z,3.28
2022-07-29T19:15:12.539Z,3.45
2022-07-29T19:17:48.092Z,4.25
2022-07-29T19:20:16.044Z,8.30
2022-07-29T19:22:43.455Z,5.18
2022-07-29T19:25:10.967Z,3.05
2022-07-29T19:27:38.420Z,16.75
2022-07-29T19:30:09.681Z,9.43
2022-07-29T19:32:37.439Z,5.28
2022-07-29T19:35:24.450Z,3.63
2022-07-29T19:37:51.991Z,2.58
2022-07-29T19:40:19.940Z,3.72
2022-07-29T19:42:51.818Z,4.38
2022-07-29T19:45:20.985Z,7.25
2022-07-29T19:47:48.303Z,3.63
2022-07-29T19:50:15.950Z,4.50
2022-07-29T19:52:43.528Z,5.43
2022-07-29T19:55:11.094Z,4.25
2022-07-29T19:57:41.098Z,4.82
2022-07-29T20:00:11.413Z,5.00
2022-07-29T20:02:41.984Z,6.38
2022-07-29T20:05:10.194Z,6.68
2022-07-29T20:07:38.126Z,7.15
2022-07-29T20:10:07.415Z,6.63
2022-07-29T20:12:35.308Z,5.80
2022-07-29T20:15:02.539Z,4.30
2022-07-29T20:17:31.081Z,10.82
2022-07-29T20:20:02.185Z,6.32
2022-07-29T20:22:30.874Z,5.28
2022-07-29T20:24:58.053Z,7.28
2022-07-29T20:27:25.282Z,6.72
2022-07-29T20:29:52.684Z,4.95
2022-07-29T20:32:21.649Z,3.88
2022-07-29T20:34:48.858Z,3.60
2022-07-29T20:37:20.597Z,5.68
2022-07-29T20:39:48.063Z,5.68
2022-07-29T20:42:15.566Z,9.52
2022-07-29T20:44:43.127Z,3.35
2022-07-29T20:47:11.717Z,4.05
2022-07-29T20:49:38.970Z,4.45
2022-07-29T20:52:06.749Z,4.28
2022-07-29T20:54:35.326Z,7.32
2022-07-29T20:57:02.757Z,4.60
2022-07-29T20:59:32.948Z,4.53
2022-07-29T21:02:00.493Z,4.82
2022-07-29T21:04:30.635Z,3.15
2022-07-29T21:07:00.295Z,5.50
2022-07-29T21:09:28.506Z,6.22
2022-07-29T21:11:59.419Z,2.90
2022-07-29T21:14:35.719Z,6.05
2022-07-29T21:17:06.067Z,5.80
2022-07-29T21:19:33.390Z,6.75
2022-07-29T21:22:03.358Z,6.22
2022-07-29T21:24:30.618Z,5.72
2022-07-29T21:27:21.035Z,4.30
2022-07-29T21:29:49.391Z,4.78
2022-07-29T21:32:27.594Z,3.50
2022-07-29T21:34:57.540Z,3.42
2022-07-29T21:37:24.897Z,2.72
2022-07-29T21:39:52.847Z,3.75
2022-07-29T21:42:21.864Z,3.60
2022-07-29T21:44:50.484Z,2.73
2022-07-29T21:47:17.727Z,4.60
2022-07-29T21:49:46.636Z,2.90
2022-07-29T21:52:16.573Z,4.75
2022-07-29T21:54:45.926Z,2.78
2022-07-29T21:57:40.885Z,6.32
2022-07-29T22:00:11.885Z,4.05
2022-07-29T22:02:44.239Z,5.80
2022-07-29T22:05:12.496Z,3.92
2022-07-29T22:07:55.515Z,5.80
2022-07-29T22:10:25.312Z,5.57
2022-07-29T22:12:55.020Z,5.10
2022-07-29T22:15:24.500Z,3.65
2022-07-29T22:17:53.979Z,2.72
2022-07-29T22:20:21.717Z,5.10
2022-07-29T22:22:49.194Z,4.38
2022-07-29T22:25:16.693Z,3.30
2022-07-29T22:27:44.627Z,4.18
2022-07-29T22:30:12.927Z,4.13
2022-07-29T22:32:41.552Z,2.90
2022-07-29T22:35:09.289Z,3.03
2022-07-29T22:37:37.147Z,4.50
2022-07-29T22:40:05.686Z,1.73
2022-07-29T22:42:34.635Z,3.22
2022-07-29T22:45:01.958Z,2.47
2022-07-29T22:47:46.223Z,2.88
2022-07-29T22:50:18.425Z,4.80
2022-07-29T22:55:14.060Z,1.88
2022-07-29T22:57:41.764Z,3.47
2022-07-29T23:00:10.483Z,2.00
2022-07-29T23:02:38.365Z,1.90
2022-07-29T23:05:06.801Z,3.42
2022-07-29T23:07:35.673Z,4.60
2022-07-29T23:10:04.069Z,1.75
2022-07-29T23:12:31.934Z,5.23
2022-07-29T23:14:59.350Z,3.38
2022-07-29T23:17:26.738Z,5.47
2022-07-29T23:19:54.139Z,3.90
2022-07-29T23:22:21.679Z,2.95
2022-07-29T23:24:50.610Z,4.70
2022-07-29T23:27:17.960Z,1.58
2022-07-29T23:29:45.324Z,3.05
2022-07-29T23:32:12.753Z,2.15
2022-07-29T23:34:40.129Z,3.38
2022-07-29T23:37:08.749Z,2.58
2022-07-29T23:39:36.296Z,2.35
2022-07-29T23:42:05.183Z,3.20
2022-07-29T23:44:33.903Z,3.17
2022-07-29T23:47:01.425Z,3.83
2022-07-29T23:49:29.198Z,1.73
2022-07-29T23:51:56.547Z,2.28
2022-07-29T23:54:24.034Z,3.78
2022-07-29T23:56:51.427Z,9.13
2022-07-29T23:59:20.186Z,7.15
